sensor_id;sensor_type;location;lat;lon;timestamp;temperature;humidity
68128;SHT30;54931;52.098;21.006;2023-04-25T00:01:42;10.93;72.77
68128;SHT30;54931;52.098;21.006;2023-04-25T00:04:10;10.89;72.88
68128;SHT30;54931;52.098;21.006;2023-04-25T00:06:38;10.83;72.94
68128;SHT30;54931;52.098;21.006;2023-04-25T00:09:07;10.80;73.14
68128;SHT30;54931;52.098;21.006;2023-04-25T00:11:37;10.78;73.17
68128;SHT30;54931;52.098;21.006;2023-04-25T00:14:05;10.76;73.21
68128;SHT30;54931;52.098;21.006;2023-04-25T00:16:33;10.77;73.56
68128;SHT30;54931;52.098;21.006;2023-04-25T00:19:02;10.81;73.69
68128;SHT30;54931;52.098;21.006;2023-04-25T00:21:31;10.87;73.54
68128;SHT30;54931;52.098;21.006;2023-04-25T00:23:59;10.90;73.58
68128;SHT30;54931;52.098;21.006;2023-04-25T00:26:27;10.90;73.33
68128;SHT30;54931;52.098;21.006;2023-04-25T00:28:55;10.89;73.21
68128;SHT30;54931;52.098;21.006;2023-04-25T00:31:23;10.86;73.20
68128;SHT30;54931;52.098;21.006;2023-04-25T00:33:50;10.84;73.25
68128;SHT30;54931;52.098;21.006;2023-04-25T00:36:18;10.82;73.41
68128;SHT30;54931;52.098;21.006;2023-04-25T00:38:46;10.78;73.44
68128;SHT30;54931;52.098;21.006;2023-04-25T00:41:14;10.76;73.53
68128;SHT30;54931;52.098;21.006;2023-04-25T00:43:42;10.74;73.61
68128;SHT30;54931;52.098;21.006;2023-04-25T00:46:13;10.71;73.76
68128;SHT30;54931;52.098;21.006;2023-04-25T00:48:41;10.69;73.78
68128;SHT30;54931;52.098;21.006;2023-04-25T00:51:09;10.64;73.77
68128;SHT30;54931;52.098;21.006;2023-04-25T00:53:46;10.60;73.84
68128;SHT30;54931;52.098;21.006;2023-04-25T00:56:16;10.55;73.90
68128;SHT30;54931;52.098;21.006;2023-04-25T00:58:45;10.49;73.94
68128;SHT30;54931;52.098;21.006;2023-04-25T01:01:13;10.44;74.00
68128;SHT30;54931;52.098;21.006;2023-04-25T01:03:41;10.41;74.05
68128;SHT30;54931;52.098;21.006;2023-04-25T01:06:10;10.36;74.00
68128;SHT30;54931;52.098;21.006;2023-04-25T01:08:38;10.33;74.13
68128;SHT30;54931;52.098;21.006;2023-04-25T01:11:06;10.29;74.18
68128;SHT30;54931;52.098;21.006;2023-04-25T01:13:34;10.24;74.18
68128;SHT30;54931;52.098;21.006;2023-04-25T01:16:02;10.19;74.28
68128;SHT30;54931;52.098;21.006;2023-04-25T01:18:32;10.14;74.44
68128;SHT30;54931;52.098;21.006;2023-04-25T01:21:10;10.10;74.47
68128;SHT30;54931;52.098;21.006;2023-04-25T01:23:40;10.05;74.62
68128;SHT30;54931;52.098;21.006;2023-04-25T01:26:09;10.02;74.73
68128;SHT30;54931;52.098;21.006;2023-04-25T01:28:39;10.00;75.05
68128;SHT30;54931;52.098;21.006;2023-04-25T01:31:09;9.98;75.04
68128;SHT30;54931;52.098;21.006;2023-04-25T01:33:37;9.95;75.14
68128;SHT30;54931;52.098;21.006;2023-04-25T01:36:05;9.93;75.44
68128;SHT30;54931;52.098;21.006;2023-04-25T01:38:33;9.91;75.66
68128;SHT30;54931;52.098;21.006;2023-04-25T01:41:02;9.90;75.87
68128;SHT30;54931;52.098;21.006;2023-04-25T01:43:30;9.90;76.00
68128;SHT30;54931;52.098;21.006;2023-04-25T01:45:58;9.88;76.09
68128;SHT30;54931;52.098;21.006;2023-04-25T01:48:27;9.86;76.16
68128;SHT30;54931;52.098;21.006;2023-04-25T01:50:55;9.83;76.20
68128;SHT30;54931;52.098;21.006;2023-04-25T01:53:22;9.81;76.54
68128;SHT30;54931;52.098;21.006;2023-04-25T01:55:52;9.82;76.84
68128;SHT30;54931;52.098;21.006;2023-04-25T01:58:19;9.83;77.08
68128;SHT30;54931;52.098;21.006;2023-04-25T02:00:47;9.85;77.22
68128;SHT30;54931;52.098;21.006;2023-04-25T02:03:15;9.85;77.31
68128;SHT30;54931;52.098;21.006;2023-04-25T02:05:43;9.87;77.64
68128;SHT30;54931;52.098;21.006;2023-04-25T02:08:11;9.91;77.89
68128;SHT30;54931;52.098;21.006;2023-04-25T02:10:39;9.92;78.11
68128;SHT30;54931;52.098;21.006;2023-04-25T02:13:07;9.97;78.76
68128;SHT30;54931;52.098;21.006;2023-04-25T02:15:35;10.04;78.93
68128;SHT30;54931;52.098;21.006;2023-04-25T02:18:03;10.07;78.64
68128;SHT30;54931;52.098;21.006;2023-04-25T02:20:33;10.08;78.62
68128;SHT30;54931;52.098;21.006;2023-04-25T02:23:02;10.08;78.67
68128;SHT30;54931;52.098;21.006;2023-04-25T02:25:30;10.07;78.67
68128;SHT30;54931;52.098;21.006;2023-04-25T02:27:58;10.07;78.88
68128;SHT30;54931;52.098;21.006;2023-04-25T02:30:26;10.09;79.07
68128;SHT30;54931;52.098;21.006;2023-04-25T02:32:55;10.11;79.15
68128;SHT30;54931;52.098;21.006;2023-04-25T02:35:23;10.12;79.30
68128;SHT30;54931;52.098;21.006;2023-04-25T02:37:51;10.13;79.36
68128;SHT30;54931;52.098;21.006;2023-04-25T02:40:19;10.14;79.35
68128;SHT30;54931;52.098;21.006;2023-04-25T02:42:48;10.15;79.47
68128;SHT30;54931;52.098;21.006;2023-04-25T02:45:15;10.14;79.40
68128;SHT30;54931;52.098;21.006;2023-04-25T02:47:44;10.13;79.34
68128;SHT30;54931;52.098;21.006;2023-04-25T02:50:12;10.13;79.77
68128;SHT30;54931;52.098;21.006;2023-04-25T02:52:39;10.15;80.09
68128;SHT30;54931;52.098;21.006;2023-04-25T02:55:07;10.19;80.17
68128;SHT30;54931;52.098;21.006;2023-04-25T02:57:36;10.22;80.35
68128;SHT30;54931;52.098;21.006;2023-04-25T03:00:05;10.24;80.35
68128;SHT30;54931;52.098;21.006;2023-04-25T03:02:35;10.29;80.56
68128;SHT30;54931;52.098;21.006;2023-04-25T03:05:03;10.32;80.44
68128;SHT30;54931;52.098;21.006;2023-04-25T03:07:32;10.34;80.46
68128;SHT30;54931;52.098;21.006;2023-04-25T03:10:00;10.38;80.64
68128;SHT30;54931;52.098;21.006;2023-04-25T03:12:28;10.41;80.61
68128;SHT30;54931;52.098;21.006;2023-04-25T03:14:56;10.47;80.73
68128;SHT30;54931;52.098;21.006;2023-04-25T03:17:23;10.52;80.57
68128;SHT30;54931;52.098;21.006;2023-04-25T03:19:51;10.57;80.64
68128;SHT30;54931;52.098;21.006;2023-04-25T03:22:19;10.62;80.56
68128;SHT30;54931;52.098;21.006;2023-04-25T03:24:47;10.69;80.44
68128;SHT30;54931;52.098;21.006;2023-04-25T03:27:15;10.74;80.29
68128;SHT30;54931;52.098;21.006;2023-04-25T03:29:43;10.79;80.28
68128;SHT30;54931;52.098;21.006;2023-04-25T03:32:11;10.85;80.14
68128;SHT30;54931;52.098;21.006;2023-04-25T03:34:39;10.92;80.05
68128;SHT30;54931;52.098;21.006;2023-04-25T03:37:07;10.98;79.92
68128;SHT30;54931;52.098;21.006;2023-04-25T03:39:35;11.03;79.66
68128;SHT30;54931;52.098;21.006;2023-04-25T03:42:03;11.09;79.48
68128;SHT30;54931;52.098;21.006;2023-04-25T03:44:31;11.13;79.36
68128;SHT30;54931;52.098;21.006;2023-04-25T03:46:59;11.19;79.24
68128;SHT30;54931;52.098;21.006;2023-04-25T03:49:29;11.23;78.97
68128;SHT30;54931;52.098;21.006;2023-04-25T03:51:58;11.28;78.85
68128;SHT30;54931;52.098;21.006;2023-04-25T03:54:26;11.33;78.70
68128;SHT30;54931;52.098;21.006;2023-04-25T03:56:54;11.39;78.41
68128;SHT30;54931;52.098;21.006;2023-04-25T03:59:22;11.41;78.17
68128;SHT30;54931;52.098;21.006;2023-04-25T04:01:50;11.44;78.07
68128;SHT30;54931;52.098;21.006;2023-04-25T04:04:18;11.46;77.93
68128;SHT30;54931;52.098;21.006;2023-04-25T04:06:46;11.48;77.83
68128;SHT30;54931;52.098;21.006;2023-04-25T04:09:14;11.51;77.71
68128;SHT30;54931;52.098;21.006;2023-04-25T04:11:42;11.53;77.59
68128;SHT30;54931;52.098;21.006;2023-04-25T04:14:10;11.53;77.45
68128;SHT30;54931;52.098;21.006;2023-04-25T04:16:38;11.56;77.41
68128;SHT30;54931;52.098;21.006;2023-04-25T04:19:06;11.57;77.37
68128;SHT30;54931;52.098;21.006;2023-04-25T04:21:34;11.57;77.36
68128;SHT30;54931;52.098;21.006;2023-04-25T04:24:02;11.57;77.36
68128;SHT30;54931;52.098;21.006;2023-04-25T04:26:31;11.59;77.30
68128;SHT30;54931;52.098;21.006;2023-04-25T04:29:00;11.59;77.37
68128;SHT30;54931;52.098;21.006;2023-04-25T04:31:28;11.59;77.36
68128;SHT30;54931;52.098;21.006;2023-04-25T04:33:57;11.59;77.55
68128;SHT30;54931;52.098;21.006;2023-04-25T04:36:25;11.61;77.47
68128;SHT30;54931;52.098;21.006;2023-04-25T04:38:54;11.61;77.69
68128;SHT30;54931;52.098;21.006;2023-04-25T04:41:23;11.59;77.89
68128;SHT30;54931;52.098;21.006;2023-04-25T04:43:51;11.56;77.96
68128;SHT30;54931;52.098;21.006;2023-04-25T04:46:20;11.54;78.28
68128;SHT30;54931;52.098;21.006;2023-04-25T04:48:48;11.51;78.47
68128;SHT30;54931;52.098;21.006;2023-04-25T04:51:16;11.48;78.62
68128;SHT30;54931;52.098;21.006;2023-04-25T04:53:44;11.44;78.70
68128;SHT30;54931;52.098;21.006;2023-04-25T04:56:12;11.39;78.77
68128;SHT30;54931;52.098;21.006;2023-04-25T04:58:40;11.37;78.81
68128;SHT30;54931;52.098;21.006;2023-04-25T05:01:08;11.32;79.05
68128;SHT30;54931;52.098;21.006;2023-04-25T05:03:36;11.28;79.40
68128;SHT30;54931;52.098;21.006;2023-04-25T05:06:04;11.22;79.45
68128;SHT30;54931;52.098;21.006;2023-04-25T05:08:33;11.18;79.49
68128;SHT30;54931;52.098;21.006;2023-04-25T05:11:01;11.14;79.93
68128;SHT30;54931;52.098;21.006;2023-04-25T05:13:29;11.09;80.03
68128;SHT30;54931;52.098;21.006;2023-04-25T05:15:57;11.05;80.21
68128;SHT30;54931;52.098;21.006;2023-04-25T05:18:25;11.03;80.39
68128;SHT30;54931;52.098;21.006;2023-04-25T05:20:53;11.00;80.38
68128;SHT30;54931;52.098;21.006;2023-04-25T05:23:21;11.01;80.55
68128;SHT30;54931;52.098;21.006;2023-04-25T05:25:49;11.01;80.53
68128;SHT30;54931;52.098;21.006;2023-04-25T05:28:16;11.01;80.56
68128;SHT30;54931;52.098;21.006;2023-04-25T05:30:44;11.01;80.21
68128;SHT30;54931;52.098;21.006;2023-04-25T05:33:12;10.98;80.18
68128;SHT30;54931;52.098;21.006;2023-04-25T05:35:39;10.97;80.24
68128;SHT30;54931;52.098;21.006;2023-04-25T05:38:07;10.95;80.32
68128;SHT30;54931;52.098;21.006;2023-04-25T05:40:35;10.93;80.38
68128;SHT30;54931;52.098;21.006;2023-04-25T05:43:03;10.92;80.42
68128;SHT30;54931;52.098;21.006;2023-04-25T05:45:31;10.92;80.44
68128;SHT30;54931;52.098;21.006;2023-04-25T05:48:00;10.94;80.49
68128;SHT30;54931;52.098;21.006;2023-04-25T05:50:27;10.95;80.82
68128;SHT30;54931;52.098;21.006;2023-04-25T05:52:55;10.95;80.80
68128;SHT30;54931;52.098;21.006;2023-04-25T05:55:23;10.91;80.82
68128;SHT30;54931;52.098;21.006;2023-04-25T05:57:50;10.89;80.93
68128;SHT30;54931;52.098;21.006;2023-04-25T06:00:18;10.85;80.96
68128;SHT30;54931;52.098;21.006;2023-04-25T06:02:46;10.83;81.06
68128;SHT30;54931;52.098;21.006;2023-04-25T06:05:14;10.80;81.11
68128;SHT30;54931;52.098;21.006;2023-04-25T06:07:42;10.77;81.48
68128;SHT30;54931;52.098;21.006;2023-04-25T06:10:10;10.73;81.49
68128;SHT30;54931;52.098;21.006;2023-04-25T06:12:39;10.68;81.55
68128;SHT30;54931;52.098;21.006;2023-04-25T06:15:07;10.63;81.82
68128;SHT30;54931;52.098;21.006;2023-04-25T06:17:35;10.60;82.01
68128;SHT30;54931;52.098;21.006;2023-04-25T06:20:03;10.56;81.98
68128;SHT30;54931;52.098;21.006;2023-04-25T06:22:33;10.55;81.95
68128;SHT30;54931;52.098;21.006;2023-04-25T06:25:00;10.55;82.07
68128;SHT30;54931;52.098;21.006;2023-04-25T06:27:31;10.55;82.21
68128;SHT30;54931;52.098;21.006;2023-04-25T06:30:00;10.57;82.25
68128;SHT30;54931;52.098;21.006;2023-04-25T06:32:30;10.58;82.22
68128;SHT30;54931;52.098;21.006;2023-04-25T06:34:58;10.59;82.23
68128;SHT30;54931;52.098;21.006;2023-04-25T06:37:25;10.58;82.26
68128;SHT30;54931;52.098;21.006;2023-04-25T06:39:54;10.56;82.25
68128;SHT30;54931;52.098;21.006;2023-04-25T06:42:22;10.53;82.27
68128;SHT30;54931;52.098;21.006;2023-04-25T06:44:49;10.53;82.57
68128;SHT30;54931;52.098;21.006;2023-04-25T06:47:17;10.46;81.87
68128;SHT30;54931;52.098;21.006;2023-04-25T06:49:45;10.41;81.68
68128;SHT30;54931;52.098;21.006;2023-04-25T06:52:13;10.36;81.55
68128;SHT30;54931;52.098;21.006;2023-04-25T06:54:41;10.32;81.56
68128;SHT30;54931;52.098;21.006;2023-04-25T06:57:09;10.31;81.70
68128;SHT30;54931;52.098;21.006;2023-04-25T06:59:38;10.32;81.80
68128;SHT30;54931;52.098;21.006;2023-04-25T07:02:06;10.37;81.77
68128;SHT30;54931;52.098;21.006;2023-04-25T07:04:35;10.44;81.67
68128;SHT30;54931;52.098;21.006;2023-04-25T07:07:02;10.53;81.44
68128;SHT30;54931;52.098;21.006;2023-04-25T07:09:30;10.58;81.06
68128;SHT30;54931;52.098;21.006;2023-04-25T07:12:00;10.63;81.04
68128;SHT30;54931;52.098;21.006;2023-04-25T07:14:29;10.73;81.07
68128;SHT30;54931;52.098;21.006;2023-04-25T07:16:57;10.77;80.06
68128;SHT30;54931;52.098;21.006;2023-04-25T07:19:25;10.79;79.98
68128;SHT30;54931;52.098;21.006;2023-04-25T07:21:53;10.82;80.13
68128;SHT30;54931;52.098;21.006;2023-04-25T07:24:21;10.88;80.17
68128;SHT30;54931;52.098;21.006;2023-04-25T07:26:49;10.88;79.76
68128;SHT30;54931;52.098;21.006;2023-04-25T07:29:17;10.81;79.77
68128;SHT30;54931;52.098;21.006;2023-04-25T07:31:44;10.72;79.78
68128;SHT30;54931;52.098;21.006;2023-04-25T07:34:12;10.66;80.11
68128;SHT30;54931;52.098;21.006;2023-04-25T07:36:40;10.61;80.06
68128;SHT30;54931;52.098;21.006;2023-04-25T07:39:08;10.56;80.11
68128;SHT30;54931;52.098;21.006;2023-04-25T07:41:36;10.50;80.28
68128;SHT30;54931;52.098;21.006;2023-04-25T07:44:04;10.49;80.53
68128;SHT30;54931;52.098;21.006;2023-04-25T07:46:32;10.48;80.29
68128;SHT30;54931;52.098;21.006;2023-04-25T07:49:00;10.44;80.08
68128;SHT30;54931;52.098;21.006;2023-04-25T07:51:28;10.39;79.97
68128;SHT30;54931;52.098;21.006;2023-04-25T07:53:56;10.35;79.86
68128;SHT30;54931;52.098;21.006;2023-04-25T07:56:24;10.36;79.97
68128;SHT30;54931;52.098;21.006;2023-04-25T07:58:52;10.41;80.17
68128;SHT30;54931;52.098;21.006;2023-04-25T08:01:19;10.45;80.01
68128;SHT30;54931;52.098;21.006;2023-04-25T08:03:48;10.48;79.96
68128;SHT30;54931;52.098;21.006;2023-04-25T08:06:16;10.48;80.09
68128;SHT30;54931;52.098;21.006;2023-04-25T08:08:45;10.50;80.19
68128;SHT30;54931;52.098;21.006;2023-04-25T08:11:13;10.45;79.93
68128;SHT30;54931;52.098;21.006;2023-04-25T08:13:41;10.41;79.81
68128;SHT30;54931;52.098;21.006;2023-04-25T08:16:08;10.35;79.68
68128;SHT30;54931;52.098;21.006;2023-04-25T08:18:36;10.31;79.87
68128;SHT30;54931;52.098;21.006;2023-04-25T08:21:04;10.25;79.70
68128;SHT30;54931;52.098;21.006;2023-04-25T08:23:33;10.17;79.73
68128;SHT30;54931;52.098;21.006;2023-04-25T08:26:02;10.09;79.75
68128;SHT30;54931;52.098;21.006;2023-04-25T08:28:30;10.06;79.84
68128;SHT30;54931;52.098;21.006;2023-04-25T08:30:58;10.02;79.66
68128;SHT30;54931;52.098;21.006;2023-04-25T08:33:27;9.98;79.76
68128;SHT30;54931;52.098;21.006;2023-04-25T08:35:55;9.92;79.76
68128;SHT30;54931;52.098;21.006;2023-04-25T08:38:23;9.87;79.84
68128;SHT30;54931;52.098;21.006;2023-04-25T08:40:50;9.87;80.05
68128;SHT30;54931;52.098;21.006;2023-04-25T08:43:19;9.86;79.94
68128;SHT30;54931;52.098;21.006;2023-04-25T08:45:47;9.82;79.86
68128;SHT30;54931;52.098;21.006;2023-04-25T08:48:16;9.78;79.96
68128;SHT30;54931;52.098;21.006;2023-04-25T08:50:51;9.76;80.13
68128;SHT30;54931;52.098;21.006;2023-04-25T08:53:28;9.77;80.41
68128;SHT30;54931;52.098;21.006;2023-04-25T08:56:00;9.79;80.45
68128;SHT30;54931;52.098;21.006;2023-04-25T08:58:29;9.79;80.37
68128;SHT30;54931;52.098;21.006;2023-04-25T09:00:59;9.78;80.49
68128;SHT30;54931;52.098;21.006;2023-04-25T09:03:27;9.79;80.57
68128;SHT30;54931;52.098;21.006;2023-04-25T09:05:55;9.81;80.65
68128;SHT30;54931;52.098;21.006;2023-04-25T09:08:23;9.83;80.69
68128;SHT30;54931;52.098;21.006;2023-04-25T09:10:51;9.85;80.50
68128;SHT30;54931;52.098;21.006;2023-04-25T09:13:26;9.86;80.41
68128;SHT30;54931;52.098;21.006;2023-04-25T09:15:56;9.84;80.43
68128;SHT30;54931;52.098;21.006;2023-04-25T09:18:26;9.83;80.53
68128;SHT30;54931;52.098;21.006;2023-04-25T09:21:07;9.79;80.10
68128;SHT30;54931;52.098;21.006;2023-04-25T09:23:48;9.78;80.46
68128;SHT30;54931;52.098;21.006;2023-04-25T09:26:19;9.80;80.79
68128;SHT30;54931;52.098;21.006;2023-04-25T09:28:48;9.86;81.04
68128;SHT30;54931;52.098;21.006;2023-04-25T09:31:22;9.94;80.90
68128;SHT30;54931;52.098;21.006;2023-04-25T09:33:58;10.04;81.01
68128;SHT30;54931;52.098;21.006;2023-04-25T09:36:29;10.12;80.95
68128;SHT30;54931;52.098;21.006;2023-04-25T09:38:59;10.11;80.23
68128;SHT30;54931;52.098;21.006;2023-04-25T09:41:28;10.05;80.17
68128;SHT30;54931;52.098;21.006;2023-04-25T09:43:56;10.00;80.26
68128;SHT30;54931;52.098;21.006;2023-04-25T09:46:32;10.02;80.55
68128;SHT30;54931;52.098;21.006;2023-04-25T09:49:08;10.01;80.43
68128;SHT30;54931;52.098;21.006;2023-04-25T09:51:35;9.98;80.41
68128;SHT30;54931;52.098;21.006;2023-04-25T09:54:03;9.94;80.51
68128;SHT30;54931;52.098;21.006;2023-04-25T09:56:31;9.93;80.58
68128;SHT30;54931;52.098;21.006;2023-04-25T09:59:06;9.91;80.48
68128;SHT30;54931;52.098;21.006;2023-04-25T10:01:36;9.89;80.39
68128;SHT30;54931;52.098;21.006;2023-04-25T10:04:09;9.86;80.22
68128;SHT30;54931;52.098;21.006;2023-04-25T10:06:39;9.85;80.35
68128;SHT30;54931;52.098;21.006;2023-04-25T10:09:11;9.87;80.56
68128;SHT30;54931;52.098;21.006;2023-04-25T10:11:41;9.87;80.38
68128;SHT30;54931;52.098;21.006;2023-04-25T10:14:09;9.86;79.95
68128;SHT30;54931;52.098;21.006;2023-04-25T10:16:40;9.80;79.83
68128;SHT30;54931;52.098;21.006;2023-04-25T10:19:10;9.79;79.95
68128;SHT30;54931;52.098;21.006;2023-04-25T10:21:44;9.81;80.16
68128;SHT30;54931;52.098;21.006;2023-04-25T10:24:19;9.87;79.97
68128;SHT30;54931;52.098;21.006;2023-04-25T10:26:47;9.89;79.99
68128;SHT30;54931;52.098;21.006;2023-04-25T10:29:26;9.92;80.03
68128;SHT30;54931;52.098;21.006;2023-04-25T10:31:55;9.95;79.88
68128;SHT30;54931;52.098;21.006;2023-04-25T10:34:37;9.98;80.02
68128;SHT30;54931;52.098;21.006;2023-04-25T10:37:10;10.03;80.04
68128;SHT30;54931;52.098;21.006;2023-04-25T10:39:41;10.04;79.98
68128;SHT30;54931;52.098;21.006;2023-04-25T10:42:10;10.04;79.75
68128;SHT30;54931;52.098;21.006;2023-04-25T10:44:38;10.02;79.70
68128;SHT30;54931;52.098;21.006;2023-04-25T10:47:07;10.02;79.80
68128;SHT30;54931;52.098;21.006;2023-04-25T10:49:37;10.03;79.96
68128;SHT30;54931;52.098;21.006;2023-04-25T10:55:05;10.06;79.98
68128;SHT30;54931;52.098;21.006;2023-04-25T10:57:39;10.14;80.13
68128;SHT30;54931;52.098;21.006;2023-04-25T11:00:18;10.24;80.07
68128;SHT30;54931;52.098;21.006;2023-04-25T11:02:58;10.35;79.79
68128;SHT30;54931;52.098;21.006;2023-04-25T11:05:31;10.44;79.61
68128;SHT30;54931;52.098;21.006;2023-04-25T11:08:02;10.47;78.69
68128;SHT30;54931;52.098;21.006;2023-04-25T11:10:43;10.49;78.69
68128;SHT30;54931;52.098;21.006;2023-04-25T11:13:12;10.55;78.41
68128;SHT30;54931;52.098;21.006;2023-04-25T11:15:40;10.58;78.31
68128;SHT30;54931;52.098;21.006;2023-04-25T11:18:08;10.64;77.86
68128;SHT30;54931;52.098;21.006;2023-04-25T11:20:36;10.67;77.08
68128;SHT30;54931;52.098;21.006;2023-04-25T11:23:04;10.69;77.01
68128;SHT30;54931;52.098;21.006;2023-04-25T11:25:32;10.77;77.53
68128;SHT30;54931;52.098;21.006;2023-04-25T11:28:01;10.84;76.90
68128;SHT30;54931;52.098;21.006;2023-04-25T11:30:30;10.89;76.40
68128;SHT30;54931;52.098;21.006;2023-04-25T11:32:58;10.91;76.00
68128;SHT30;54931;52.098;21.006;2023-04-25T11:35:26;10.94;75.99
68128;SHT30;54931;52.098;21.006;2023-04-25T11:37:54;10.96;75.57
68128;SHT30;54931;52.098;21.006;2023-04-25T11:40:22;10.96;75.52
68128;SHT30;54931;52.098;21.006;2023-04-25T11:42:50;10.96;74.73
68128;SHT30;54931;52.098;21.006;2023-04-25T11:45:18;10.94;74.46
68128;SHT30;54931;52.098;21.006;2023-04-25T11:47:46;10.92;73.79
68128;SHT30;54931;52.098;21.006;2023-04-25T11:50:14;10.94;74.13
68128;SHT30;54931;52.098;21.006;2023-04-25T11:52:43;10.99;74.47
68128;SHT30;54931;52.098;21.006;2023-04-25T11:55:15;11.06;74.51
68128;SHT30;54931;52.098;21.006;2023-04-25T11:57:49;11.15;74.23
68128;SHT30;54931;52.098;21.006;2023-04-25T12:00:18;11.21;73.92
68128;SHT30;54931;52.098;21.006;2023-04-25T12:02:52;11.23;72.86
68128;SHT30;54931;52.098;21.006;2023-04-25T12:05:29;11.22;72.43
68128;SHT30;54931;52.098;21.006;2023-04-25T12:08:09;11.20;72.45
68128;SHT30;54931;52.098;21.006;2023-04-25T12:10:42;11.19;72.50
68128;SHT30;54931;52.098;21.006;2023-04-25T12:13:20;11.17;71.72
68128;SHT30;54931;52.098;21.006;2023-04-25T12:15:50;11.14;71.88
68128;SHT30;54931;52.098;21.006;2023-04-25T12:18:19;11.13;71.52
68128;SHT30;54931;52.098;21.006;2023-04-25T12:20:53;11.09;71.69
68128;SHT30;54931;52.098;21.006;2023-04-25T12:23:25;11.07;71.76
68128;SHT30;54931;52.098;21.006;2023-04-25T12:25:55;11.02;71.94
68128;SHT30;54931;52.098;21.006;2023-04-25T12:28:24;10.96;71.05
68128;SHT30;54931;52.098;21.006;2023-04-25T12:30:58;10.86;70.31
68128;SHT30;54931;52.098;21.006;2023-04-25T12:33:37;10.78;70.62
68128;SHT30;54931;52.098;21.006;2023-04-25T12:36:06;10.74;70.82
68128;SHT30;54931;52.098;21.006;2023-04-25T12:38:40;10.74;71.30
68128;SHT30;54931;52.098;21.006;2023-04-25T12:41:09;10.76;71.70
68128;SHT30;54931;52.098;21.006;2023-04-25T12:43:37;10.79;71.08
68128;SHT30;54931;52.098;21.006;2023-04-25T12:46:05;10.83;70.88
68128;SHT30;54931;52.098;21.006;2023-04-25T12:48:33;10.87;70.54
68128;SHT30;54931;52.098;21.006;2023-04-25T12:51:01;10.91;69.87
68128;SHT30;54931;52.098;21.006;2023-04-25T12:53:29;10.93;69.55
68128;SHT30;54931;52.098;21.006;2023-04-25T12:55:58;10.96;69.72
68128;SHT30;54931;52.098;21.006;2023-04-25T12:58:27;10.99;69.42
68128;SHT30;54931;52.098;21.006;2023-04-25T13:00:55;11.00;69.00
68128;SHT30;54931;52.098;21.006;2023-04-25T13:03:23;11.00;69.08
68128;SHT30;54931;52.098;21.006;2023-04-25T13:05:51;11.01;69.30
68128;SHT30;54931;52.098;21.006;2023-04-25T13:08:19;11.03;69.20
68128;SHT30;54931;52.098;21.006;2023-04-25T13:10:47;11.07;69.74
68128;SHT30;54931;52.098;21.006;2023-04-25T13:13:15;11.11;69.71
68128;SHT30;54931;52.098;21.006;2023-04-25T13:15:43;11.14;69.70
68128;SHT30;54931;52.098;21.006;2023-04-25T13:18:12;11.14;69.25
68128;SHT30;54931;52.098;21.006;2023-04-25T13:20:40;11.16;69.49
68128;SHT30;54931;52.098;21.006;2023-04-25T13:23:09;11.17;69.47
68128;SHT30;54931;52.098;21.006;2023-04-25T13:25:37;11.16;69.74
68128;SHT30;54931;52.098;21.006;2023-04-25T13:28:08;11.17;69.84
68128;SHT30;54931;52.098;21.006;2023-04-25T13:30:42;11.22;70.37
68128;SHT30;54931;52.098;21.006;2023-04-25T13:33:11;11.28;70.20
68128;SHT30;54931;52.098;21.006;2023-04-25T13:35:39;11.28;69.94
68128;SHT30;54931;52.098;21.006;2023-04-25T13:38:07;11.26;69.89
68128;SHT30;54931;52.098;21.006;2023-04-25T13:40:36;11.19;69.26
68128;SHT30;54931;52.098;21.006;2023-04-25T13:43:04;11.13;70.23
68128;SHT30;54931;52.098;21.006;2023-04-25T13:45:33;11.13;70.69
68128;SHT30;54931;52.098;21.006;2023-04-25T13:48:02;11.09;70.56
68128;SHT30;54931;52.098;21.006;2023-04-25T13:50:30;11.06;70.80
68128;SHT30;54931;52.098;21.006;2023-04-25T13:52:58;11.02;71.16
68128;SHT30;54931;52.098;21.006;2023-04-25T13:55:27;11.00;71.69
68128;SHT30;54931;52.098;21.006;2023-04-25T13:57:55;10.98;71.96
68128;SHT30;54931;52.098;21.006;2023-04-25T14:00:23;10.96;72.27
68128;SHT30;54931;52.098;21.006;2023-04-25T14:02:52;10.95;72.64
68128;SHT30;54931;52.098;21.006;2023-04-25T14:05:20;10.96;72.76
68128;SHT30;54931;52.098;21.006;2023-04-25T14:07:48;10.91;72.33
68128;SHT30;54931;52.098;21.006;2023-04-25T14:10:16;10.81;72.51
68128;SHT30;54931;52.098;21.006;2023-04-25T14:12:44;10.76;73.14
68128;SHT30;54931;52.098;21.006;2023-04-25T14:15:12;10.75;73.45
68128;SHT30;54931;52.098;21.006;2023-04-25T14:17:41;10.70;73.66
68128;SHT30;54931;52.098;21.006;2023-04-25T14:20:09;10.69;74.03
68128;SHT30;54931;52.098;21.006;2023-04-25T14:22:38;10.71;74.60
68128;SHT30;54931;52.098;21.006;2023-04-25T14:25:10;10.72;74.92
68128;SHT30;54931;52.098;21.006;2023-04-25T14:27:39;10.69;74.69
68128;SHT30;54931;52.098;21.006;2023-04-25T14:30:09;10.64;74.67
68128;SHT30;54931;52.098;21.006;2023-04-25T14:32:38;10.61;74.99
68128;SHT30;54931;52.098;21.006;2023-04-25T14:35:06;10.64;75.29
68128;SHT30;54931;52.098;21.006;2023-04-25T14:37:36;10.65;75.09
68128;SHT30;54931;52.098;21.006;2023-04-25T14:40:04;10.65;75.25
68128;SHT30;54931;52.098;21.006;2023-04-25T14:42:35;10.70;75.79
68128;SHT30;54931;52.098;21.006;2023-04-25T14:45:04;10.81;76.01
68128;SHT30;54931;52.098;21.006;2023-04-25T14:47:35;10.86;75.79
68128;SHT30;54931;52.098;21.006;2023-04-25T14:50:05;10.90;75.81
68128;SHT30;54931;52.098;21.006;2023-04-25T14:52:37;10.98;76.07
68128;SHT30;54931;52.098;21.006;2023-04-25T14:55:05;11.03;75.57
68128;SHT30;54931;52.098;21.006;2023-04-25T14:57:35;11.01;75.47
68128;SHT30;54931;52.098;21.006;2023-04-25T15:00:03;10.97;75.60
68128;SHT30;54931;52.098;21.006;2023-04-25T15:02:34;10.90;75.72
68128;SHT30;54931;52.098;21.006;2023-04-25T15:05:04;10.82;75.89
68128;SHT30;54931;52.098;21.006;2023-04-25T15:07:32;10.72;76.11
68128;SHT30;54931;52.098;21.006;2023-04-25T15:10:01;10.62;76.53
68128;SHT30;54931;52.098;21.006;2023-04-25T15:12:30;10.54;76.71
68128;SHT30;54931;52.098;21.006;2023-04-25T15:14:58;10.40;76.44
68128;SHT30;54931;52.098;21.006;2023-04-25T15:17:26;10.28;76.72
68128;SHT30;54931;52.098;21.006;2023-04-25T15:19:57;10.17;76.92
68128;SHT30;54931;52.098;21.006;2023-04-25T15:22:25;10.07;76.93
68128;SHT30;54931;52.098;21.006;2023-04-25T15:24:53;9.98;77.10
68128;SHT30;54931;52.098;21.006;2023-04-25T15:27:23;9.92;77.27
68128;SHT30;54931;52.098;21.006;2023-04-25T15:29:51;9.89;77.66
68128;SHT30;54931;52.098;21.006;2023-04-25T15:32:19;9.87;77.81